Time;durP1;ratioP1;P1;durP2;ratioP2;P2;SDS_P1;SDS_P2;PMS_P1;PMS_P2;Temp;Humidity;BMP_temperature;BMP_pressure;BME280_temperature;BME280_humidity;BME280_pressure;Samples;Min_cycle;Max_cycle;Signal;HPM_P1;HPM_P2
2022/03/14 00:01:37;;;;;;;12.63;10.82;;;6.90;57.00;;;;;;4932054;29;20047;-72
2022/03/14 00:04:03;;;;;;;16.73;12.05;;;7.10;55.80;;;;;;4923054;29;20043;-73
2022/03/14 00:06:30;;;;;;;14.50;11.68;;;7.40;54.50;;;;;;4933824;29;20040;-76
2022/03/14 00:08:57;;;;;;;13.00;9.63;;;7.50;53.80;;;;;;4933858;29;20040;-72
2022/03/14 00:11:26;;;;;;;11.55;9.57;;;7.60;53.20;;;;;;4934024;29;20472;-72
2022/03/14 00:13:56;;;;;;;15.23;8.70;;;7.80;52.90;;;;;;4929309;29;20464;-79
2022/03/14 00:16:25;;;;;;;12.73;9.20;;;7.80;52.80;;;;;;4931742;29;20035;-72
2022/03/14 00:18:55;;;;;;;13.75;9.40;;;8.00;52.20;;;;;;4929155;29;20051;-78
2022/03/14 00:21:23;;;;;;;17.27;10.90;;;7.90;52.30;;;;;;4933363;29;20036;-72
2022/03/14 00:23:55;;;;;;;12.52;10.18;;;7.80;52.60;;;;;;4932861;29;20347;-79
2022/03/14 00:26:22;;;;;;;12.95;10.18;;;7.80;52.70;;;;;;4931199;29;20043;-72
2022/03/14 00:28:50;;;;;;;11.25;9.82;;;7.70;52.70;;;;;;4930426;29;20063;-80
2022/03/14 00:31:17;;;;;;;13.02;9.93;;;7.70;52.90;;;;;;4934539;29;20035;-72
2022/03/14 00:33:43;;;;;;;9.82;8.75;;;7.60;52.70;;;;;;4936572;29;20393;-74
2022/03/14 00:36:10;;;;;;;11.68;9.40;;;7.60;52.90;;;;;;4936471;29;20032;-72
2022/03/14 00:38:37;;;;;;;11.82;8.77;;;7.60;53.00;;;;;;4936150;29;20032;-72
2022/03/14 00:41:05;;;;;;;12.50;10.02;;;7.70;53.50;;;;;;4937134;29;20038;-72
2022/03/14 00:43:33;;;;;;;12.52;9.32;;;7.70;53.70;;;;;;4937418;29;20043;-74
2022/03/14 00:45:59;;;;;;;11.13;9.30;;;7.60;55.00;;;;;;4935949;29;20035;-72
2022/03/14 00:48:26;;;;;;;14.82;9.15;;;7.40;55.20;;;;;;4937229;29;20042;-72
2022/03/14 00:50:53;;;;;;;10.70;9.70;;;7.30;55.30;;;;;;4930448;29;20040;-73
2022/03/14 00:53:20;;;;;;;9.07;8.15;;;7.20;55.40;;;;;;4937167;29;20036;-73
2022/03/14 00:55:47;;;;;;;10.73;9.60;;;7.20;55.40;;;;;;4935956;29;20492;-72
2022/03/14 00:58:13;;;;;;;10.52;8.98;;;7.30;55.60;;;;;;4937080;29;20055;-72
2022/03/14 01:00:39;;;;;;;12.32;10.05;;;7.50;55.10;;;;;;4937178;29;20042;-72
2022/03/14 01:03:05;;;;;;;21.05;10.60;;;7.50;54.70;;;;;;4935500;29;20051;-72
2022/03/14 01:05:32;;;;;;;13.27;9.15;;;7.70;54.40;;;;;;4933450;29;20038;-73
2022/03/14 01:08:03;;;;;;;13.90;10.35;;;7.70;54.30;;;;;;4929397;29;20039;-73
2022/03/14 01:10:29;;;;;;;15.23;9.25;;;7.70;54.30;;;;;;4936096;29;20427;-72
2022/03/14 01:12:57;;;;;;;12.23;10.48;;;7.70;54.50;;;;;;4935155;29;20035;-73
2022/03/14 01:15:23;;;;;;;13.80;10.32;;;7.80;54.50;;;;;;4934574;29;20040;-72
2022/03/14 01:17:49;;;;;;;14.30;10.18;;;7.80;54.30;;;;;;4931852;29;20035;-72
2022/03/14 01:20:19;;;;;;;12.77;10.75;;;7.90;55.00;;;;;;4935804;29;20382;-72
2022/03/14 01:22:45;;;;;;;13.50;11.13;;;7.90;55.00;;;;;;4935616;29;20055;-72
2022/03/14 01:25:11;;;;;;;12.68;10.15;;;7.80;56.20;;;;;;4928686;29;20030;-72
2022/03/14 01:27:37;;;;;;;11.15;10.00;;;7.70;56.00;;;;;;4935352;29;20042;-72
2022/03/14 01:30:04;;;;;;;10.20;9.23;;;7.60;55.80;;;;;;4934868;29;20031;-72
2022/03/14 01:32:31;;;;;;;20.08;10.90;;;7.60;56.00;;;;;;4935557;29;20351;-74
2022/03/14 01:34:57;;;;;;;16.13;11.43;;;7.50;56.20;;;;;;4927446;29;20038;-72
2022/03/14 01:37:23;;;;;;;16.27;11.40;;;7.50;56.60;;;;;;4935221;29;20043;-73
2022/03/14 01:39:49;;;;;;;15.77;10.95;;;7.50;57.00;;;;;;4935076;29;20047;-72
2022/03/14 01:42:19;;;;;;;14.45;11.52;;;7.40;57.10;;;;;;4934897;29;20477;-73
2022/03/14 01:44:47;;;;;;;14.93;11.38;;;7.40;57.50;;;;;;4921665;29;20044;-73
2022/03/14 01:47:14;;;;;;;16.58;11.70;;;7.80;60.90;;;;;;4934928;29;20100;-72
2022/03/14 01:49:45;;;;;;;17.13;11.55;;;8.50;70.30;;;;;;4935663;29;20042;-73
2022/03/14 01:52:13;;;;;;;9.93;8.93;;;8.80;69.70;;;;;;4935055;29;20581;-72
2022/03/14 01:54:41;;;;;;;7.30;5.93;;;9.40;78.50;;;;;;4933378;29;20501;-73
2022/03/14 01:57:08;;;;;;;4.35;3.75;;;9.60;79.30;;;;;;4934350;29;20035;-73
2022/03/14 01:59:37;;;;;;;8.10;4.00;;;9.60;80.30;;;;;;4934732;29;20043;-74
2022/03/14 02:02:11;;;;;;;3.05;2.78;;;9.50;82.00;;;;;;4930251;29;20461;-72
2022/03/14 02:04:37;;;;;;;4.97;2.40;;;9.60;82.70;;;;;;4930180;29;20039;-72
2022/03/14 02:07:04;;;;;;;3.70;2.60;;;9.60;83.70;;;;;;4893685;29;1076854;-72
2022/03/14 02:09:30;;;;;;;1.90;1.52;;;9.60;84.10;;;;;;4936059;29;20362;-73
2022/03/14 02:11:56;;;;;;;2.30;1.90;;;9.60;85.50;;;;;;4935205;29;20046;-73
2022/03/14 02:14:23;;;;;;;3.13;2.05;;;9.50;87.50;;;;;;4935216;29;20036;-72
2022/03/14 02:16:50;;;;;;;2.40;1.90;;;9.50;89.80;;;;;;4936077;29;20027;-72
2022/03/14 02:19:17;;;;;;;1.60;1.50;;;9.40;91.20;;;;;;4933483;29;20036;-72
2022/03/14 02:21:43;;;;;;;2.10;1.42;;;9.40;93.60;;;;;;4936218;29;20032;-72
2022/03/14 02:24:11;;;;;;;1.42;1.27;;;9.40;95.70;;;;;;4929908;29;20067;-73
2022/03/14 02:26:39;;;;;;;3.38;1.55;;;9.30;97.50;;;;;;4918446;29;20035;-72
2022/03/14 02:29:08;;;;;;;2.00;1.08;;;9.20;99.40;;;;;;4935681;29;20042;-71
2022/03/14 02:31:36;;;;;;;1.45;1.20;;;9.10;99.90;;;;;;4936493;29;20039;-72
2022/03/14 02:34:07;;;;;;;1.85;1.00;;;9.00;99.90;;;;;;4933151;29;20044;-72
2022/03/14 02:36:37;;;;;;;0.95;0.85;;;8.90;99.90;;;;;;4935573;29;20032;-75
2022/03/14 02:39:04;;;;;;;2.42;0.95;;;8.90;99.90;;;;;;4917741;29;20038;-73
2022/03/14 02:41:32;;;;;;;1.75;1.30;;;8.90;99.90;;;;;;4933953;29;20032;-73
2022/03/14 02:44:01;;;;;;;2.63;2.10;;;8.80;99.90;;;;;;4933159;29;20047;-73
2022/03/14 02:46:27;;;;;;;2.00;1.55;;;8.70;99.90;;;;;;4933600;29;20036;-73
2022/03/14 02:48:53;;;;;;;2.65;1.80;;;8.60;99.90;;;;;;4933579;29;20036;-74
2022/03/14 02:51:20;;;;;;;1.33;0.95;;;8.50;99.90;;;;;;4917842;29;20047;-73
2022/03/14 02:53:46;;;;;;;2.55;1.20;;;8.50;99.90;;;;;;4933948;29;20044;-74
2022/03/14 02:56:12;;;;;;;2.08;1.33;;;8.50;99.90;;;;;;4928996;29;20047;-73
2022/03/14 02:58:40;;;;;;;1.92;1.48;;;8.40;99.90;;;;;;4934518;29;20040;-73
2022/03/14 03:01:06;;;;;;;1.55;1.17;;;8.40;99.90;;;;;;4922763;29;20035;-73
2022/03/14 03:03:32;;;;;;;0.93;0.88;;;8.30;99.90;;;;;;4928602;29;21003;-76
2022/03/14 03:06:00;;;;;;;1.77;1.48;;;8.30;99.90;;;;;;4934089;29;20051;-73
2022/03/14 03:08:27;;;;;;;2.53;1.63;;;8.20;99.90;;;;;;4934056;29;20043;-73
2022/03/14 03:10:57;;;;;;;1.27;1.17;;;8.20;99.90;;;;;;4934952;29;20369;-81
2022/03/14 03:13:25;;;;;;;2.78;1.45;;;8.10;99.90;;;;;;4935003;29;20477;-74
2022/03/14 03:15:53;;;;;;;2.38;1.50;;;8.00;99.90;;;;;;4934197;29;20043;-73
2022/03/14 03:18:19;;;;;;;1.45;1.35;;;8.00;99.90;;;;;;4934495;29;20035;-73
2022/03/14 03:20:45;;;;;;;2.25;1.27;;;8.00;99.90;;;;;;4934093;29;20051;-73
2022/03/14 03:23:11;;;;;;;4.28;1.65;;;7.90;99.90;;;;;;4933556;29;20031;-76
2022/03/14 03:25:38;;;;;;;1.65;1.38;;;7.90;99.90;;;;;;4931387;29;20037;-73
2022/03/14 03:28:04;;;;;;;1.55;1.33;;;7.80;99.90;;;;;;4934463;29;20040;-73
2022/03/14 03:30:30;;;;;;;3.70;1.33;;;7.80;99.90;;;;;;4934282;29;20040;-73
2022/03/14 03:32:56;;;;;;;2.33;1.75;;;7.80;99.90;;;;;;4934059;29;20040;-80
2022/03/14 03:35:22;;;;;;;1.75;1.60;;;7.70;99.90;;;;;;4910310;29;20035;-73
2022/03/14 03:37:49;;;;;;;1.30;1.15;;;7.70;99.90;;;;;;4927304;29;20032;-78
2022/03/14 03:40:15;;;;;;;2.55;1.67;;;7.70;99.90;;;;;;4928321;29;20608;-73
2022/03/14 03:42:42;;;;;;;3.35;1.55;;;7.70;99.90;;;;;;4932959;29;20055;-73
2022/03/14 03:45:09;;;;;;;1.58;1.10;;;7.60;99.90;;;;;;4930365;29;20035;-73
2022/03/14 03:47:35;;;;;;;1.38;1.08;;;7.60;99.90;;;;;;4932428;29;20031;-73
2022/03/14 03:50:01;;;;;;;2.00;1.10;;;7.60;99.90;;;;;;4933065;29;20043;-74
2022/03/14 03:52:28;;;;;;;1.40;0.98;;;7.60;99.90;;;;;;4934158;29;20054;-73
2022/03/14 03:54:54;;;;;;;2.08;1.73;;;7.60;99.90;;;;;;4915084;29;20055;-80
2022/03/14 03:57:20;;;;;;;2.10;1.90;;;7.60;99.90;;;;;;4930499;29;20035;-73
2022/03/14 03:59:46;;;;;;;4.30;2.92;;;7.60;99.90;;;;;;4931725;29;20036;-73
2022/03/14 04:02:13;;;;;;;3.88;3.50;;;7.60;99.90;;;;;;4930982;29;20041;-73
2022/03/14 04:04:39;;;;;;;3.50;3.20;;;7.60;99.90;;;;;;4931765;29;20071;-73
2022/03/14 04:07:08;;;;;;;7.25;3.22;;;7.60;99.90;;;;;;4933469;29;20401;-74
2022/03/14 04:09:34;;;;;;;5.97;2.72;;;7.60;99.90;;;;;;4934072;29;20477;-76
2022/03/14 04:12:01;;;;;;;3.25;2.20;;;7.60;99.90;;;;;;4933594;29;20469;-79
2022/03/14 04:14:27;;;;;;;3.72;3.17;;;7.60;99.90;;;;;;4927956;29;20054;-73
2022/03/14 04:16:54;;;;;;;2.70;2.40;;;7.60;99.90;;;;;;4933870;29;20047;-74
2022/03/14 04:19:20;;;;;;;3.45;2.30;;;7.60;99.90;;;;;;4933907;29;20039;-73
2022/03/14 04:21:52;;;;;;;8.52;2.50;;;7.60;99.90;;;;;;4933983;29;20405;-73
2022/03/14 04:24:19;;;;;;;2.60;2.10;;;7.70;99.90;;;;;;4926006;29;20063;-74
2022/03/14 04:26:47;;;;;;;2.85;2.58;;;7.70;99.90;;;;;;4934153;29;20466;-77
2022/03/14 04:29:15;;;;;;;4.78;2.83;;;7.70;99.90;;;;;;4934039;29;20617;-73
2022/03/14 04:31:41;;;;;;;2.60;2.38;;;7.70;99.90;;;;;;4933302;29;20386;-75
2022/03/14 04:34:08;;;;;;;3.05;2.42;;;7.70;99.90;;;;;;4927645;29;20036;-74
2022/03/14 04:36:34;;;;;;;3.00;2.53;;;7.70;99.90;;;;;;4930817;29;20032;-72
2022/03/14 04:39:00;;;;;;;2.92;2.35;;;7.70;99.90;;;;;;4931607;29;20047;-73
2022/03/14 04:41:26;;;;;;;4.50;3.15;;;7.70;99.90;;;;;;4929832;29;20032;-73
2022/03/14 04:43:52;;;;;;;3.97;3.60;;;7.70;99.90;;;;;;4927854;29;20428;-73
2022/03/14 04:46:21;;;;;;;4.03;3.45;;;7.70;99.90;;;;;;4933958;29;20365;-73
2022/03/14 04:48:47;;;;;;;6.63;4.00;;;7.70;99.90;;;;;;4932516;29;20055;-73
2022/03/14 04:51:13;;;;;;;4.65;4.25;;;7.70;99.90;;;;;;4931555;29;20035;-73
2022/03/14 04:53:39;;;;;;;4.80;4.40;;;7.70;99.90;;;;;;4927455;29;20051;-73
2022/03/14 04:56:06;;;;;;;9.05;6.25;;;7.70;99.90;;;;;;4931060;29;20047;-73
2022/03/14 04:58:32;;;;;;;8.35;7.20;;;7.80;99.90;;;;;;4914236;29;20051;-74
2022/03/14 05:00:59;;;;;;;12.50;6.63;;;7.70;99.90;;;;;;4927772;29;20057;-75
2022/03/14 05:03:27;;;;;;;6.88;6.07;;;7.70;99.90;;;;;;4927205;29;20056;-73
2022/03/14 05:05:53;;;;;;;6.90;6.30;;;7.70;99.90;;;;;;4930555;29;20044;-73
2022/03/14 05:08:20;;;;;;;4.88;4.40;;;7.80;99.90;;;;;;4932619;29;20040;-74
2022/03/14 05:10:46;;;;;;;6.07;5.47;;;7.80;99.90;;;;;;4931667;29;20044;-73
2022/03/14 05:13:12;;;;;;;27.75;21.38;;;7.80;99.90;;;;;;4922704;29;20051;-75
2022/03/14 05:15:38;;;;;;;11.00;7.78;;;7.80;99.90;;;;;;4917769;29;20039;-73
2022/03/14 05:18:05;;;;;;;6.68;4.25;;;7.70;99.90;;;;;;4935091;29;20032;-73
2022/03/14 05:20:31;;;;;;;12.68;8.32;;;7.70;99.90;;;;;;4936255;29;20052;-73
2022/03/14 05:22:57;;;;;;;9.32;5.90;;;7.70;99.90;;;;;;4936226;29;20035;-79
2022/03/14 05:25:24;;;;;;;3.30;3.00;;;7.70;99.90;;;;;;4929493;29;20035;-73
2022/03/14 05:27:52;;;;;;;3.13;1.63;;;7.70;99.90;;;;;;4936744;29;20039;-73
2022/03/14 05:30:19;;;;;;;3.20;2.13;;;7.70;99.90;;;;;;4935555;29;20032;-73
2022/03/14 05:32:45;;;;;;;2.47;2.00;;;7.70;99.90;;;;;;4933793;29;20040;-73
2022/03/14 05:35:12;;;;;;;4.25;2.35;;;7.70;99.90;;;;;;4930775;29;20481;-73
2022/03/14 05:37:39;;;;;;;5.78;4.45;;;7.60;99.90;;;;;;4934824;29;20040;-73
2022/03/14 05:40:07;;;;;;;5.65;3.22;;;7.60;99.90;;;;;;4936109;29;20043;-73
2022/03/14 05:42:33;;;;;;;5.15;4.65;;;7.60;99.90;;;;;;4935582;29;20035;-73
2022/03/14 05:45:00;;;;;;;5.43;4.65;;;7.50;99.90;;;;;;4934277;29;20040;-73
2022/03/14 05:47:26;;;;;;;7.18;6.10;;;7.50;99.90;;;;;;4936432;29;20457;-76
2022/03/14 05:49:52;;;;;;;10.35;9.25;;;7.60;99.90;;;;;;4934000;29;20028;-72
2022/03/14 05:52:21;;;;;;;12.60;7.85;;;7.70;99.90;;;;;;4933071;29;20859;-74
2022/03/14 05:54:48;;;;;;;15.00;9.30;;;7.70;99.90;;;;;;4934819;29;20043;-73
2022/03/14 05:57:14;;;;;;;9.75;8.77;;;7.70;99.90;;;;;;4935880;29;20075;-73
2022/03/14 05:59:40;;;;;;;9.02;8.15;;;7.80;99.90;;;;;;4935642;29;20039;-73
2022/03/14 06:02:08;;;;;;;9.00;7.32;;;7.80;99.90;;;;;;4935529;29;20028;-73
2022/03/14 06:04:34;;;;;;;10.20;9.02;;;7.80;99.90;;;;;;4934635;29;20054;-73
2022/03/14 06:07:00;;;;;;;9.20;8.27;;;7.80;99.90;;;;;;4935293;29;20054;-73
2022/03/14 06:09:28;;;;;;;11.50;8.80;;;7.70;99.90;;;;;;4918555;29;20040;-72
2022/03/14 06:11:55;;;;;;;8.10;7.22;;;7.80;99.90;;;;;;4936273;29;20035;-73
2022/03/14 06:14:21;;;;;;;13.30;7.43;;;7.80;99.90;;;;;;4934738;29;20393;-73
2022/03/14 06:16:47;;;;;;;12.82;7.85;;;7.90;99.90;;;;;;4934304;29;20034;-73
2022/03/14 06:19:14;;;;;;;7.72;6.80;;;7.80;99.90;;;;;;4935668;29;20036;-73
2022/03/14 06:21:41;;;;;;;8.77;6.28;;;7.80;99.90;;;;;;4935866;29;20047;-73
2022/03/14 06:24:09;;;;;;;8.20;5.85;;;7.90;99.90;;;;;;4933810;29;20043;-73
2022/03/14 06:26:35;;;;;;;4.55;4.13;;;7.90;99.90;;;;;;4933269;29;20035;-73
2022/03/14 06:29:03;;;;;;;4.47;4.03;;;7.90;99.90;;;;;;4929927;29;20059;-74
2022/03/14 06:31:31;;;;;;;5.18;4.15;;;7.90;99.90;;;;;;4928628;29;20071;-73
2022/03/14 06:33:58;;;;;;;5.43;4.75;;;7.90;99.90;;;;;;4934356;29;20036;-73
2022/03/14 06:36:29;;;;;;;4.68;3.75;;;7.80;99.90;;;;;;4934962;29;20461;-73
2022/03/14 06:38:58;;;;;;;4.10;3.13;;;7.80;99.90;;;;;;4935612;29;20043;-74
2022/03/14 06:41:25;;;;;;;3.00;2.53;;;7.80;99.90;;;;;;4935167;29;20043;-77
2022/03/14 06:43:56;;;;;;;6.65;3.00;;;7.90;99.90;;;;;;4928314;29;20121;-73
2022/03/14 06:46:22;;;;;;;;;;;7.80;99.90;;;;;;4919773;29;20051;-73
2022/03/14 06:48:49;;;;;;;2.40;1.98;;;7.80;99.90;;;;;;4930602;29;19918;-72
2022/03/14 06:51:15;;;;;;;7.60;3.58;;;7.80;99.90;;;;;;4936880;29;20382;-74
2022/03/14 06:53:42;;;;;;;9.38;4.22;;;7.80;99.90;;;;;;4935735;29;20049;-72
2022/03/14 06:56:08;;;;;;;4.22;3.83;;;7.80;99.90;;;;;;4936392;29;20042;-72
2022/03/14 06:58:36;;;;;;;6.43;3.95;;;7.90;99.90;;;;;;4935339;29;20043;-72
2022/03/14 07:01:06;;;;;;;10.50;5.38;;;7.90;99.90;;;;;;4932903;29;20054;-72
2022/03/14 07:03:32;;;;;;;9.00;3.72;;;7.90;99.90;;;;;;4933292;29;20047;-73
2022/03/14 07:05:58;;;;;;;5.38;4.20;;;7.90;99.90;;;;;;4934502;29;20397;-77
2022/03/14 07:08:25;;;;;;;8.18;5.20;;;7.90;99.90;;;;;;4933097;29;20031;-76
2022/03/14 07:10:53;;;;;;;9.10;5.13;;;7.90;99.90;;;;;;4934923;29;20035;-73
2022/03/14 07:13:20;;;;;;;6.75;4.07;;;7.90;99.90;;;;;;4933045;29;20040;-73
2022/03/14 07:15:46;;;;;;;9.48;4.10;;;8.00;99.90;;;;;;4932269;29;20031;-73
2022/03/14 07:18:13;;;;;;;8.85;3.40;;;8.00;99.90;;;;;;4930002;29;20035;-73
2022/03/14 07:20:39;;;;;;;9.52;3.28;;;8.10;99.90;;;;;;4931633;29;20071;-73
2022/03/14 07:23:07;;;;;;;7.47;4.18;;;8.10;99.90;;;;;;4923437;29;20040;-75
2022/03/14 07:25:39;;;;;;;5.18;3.00;;;8.20;99.90;;;;;;4929889;29;20074;-73
2022/03/14 07:28:07;;;;;;;7.72;3.05;;;8.20;99.90;;;;;;4915446;29;20036;-73
2022/03/14 07:30:35;;;;;;;7.72;3.60;;;8.40;99.90;;;;;;4934449;29;20050;-73
2022/03/14 07:33:02;;;;;;;3.45;2.55;;;8.40;99.90;;;;;;4933471;29;20055;-74
2022/03/14 07:35:29;;;;;;;6.47;3.40;;;8.60;99.90;;;;;;4899108;29;20048;-73
2022/03/14 07:37:56;;;;;;;4.13;2.67;;;8.70;99.90;;;;;;4934406;29;20477;-73
2022/03/14 07:40:23;;;;;;;5.20;3.20;;;8.80;99.90;;;;;;4934211;29;20035;-73
2022/03/14 07:42:51;;;;;;;8.57;2.97;;;8.80;99.90;;;;;;4934282;29;20035;-76
2022/03/14 07:45:21;;;;;;;7.90;3.22;;;8.80;99.90;;;;;;4912877;29;20279;-73
2022/03/14 07:47:47;;;;;;;5.50;2.90;;;8.80;99.90;;;;;;4928598;29;20032;-74
2022/03/14 07:50:15;;;;;;;7.70;2.67;;;8.80;99.90;;;;;;4933453;29;20050;-73
2022/03/14 07:52:42;;;;;;;6.88;3.53;;;9.00;99.90;;;;;;4933696;29;20397;-73
2022/03/14 07:55:09;;;;;;;7.05;3.55;;;9.00;99.90;;;;;;4930961;29;20032;-73
2022/03/14 07:57:37;;;;;;;7.70;3.45;;;9.10;99.90;;;;;;4931363;29;20048;-73
2022/03/14 08:00:06;;;;;;;5.90;3.53;;;9.30;99.90;;;;;;4933585;29;20394;-73
2022/03/14 08:02:42;;;;;;;3.78;2.67;;;9.30;99.50;;;;;;4940435;29;20050;-73
2022/03/14 08:05:09;;;;;;;9.63;3.58;;;9.20;98.70;;;;;;4932433;29;20042;-73
2022/03/14 08:07:37;;;;;;;5.78;3.38;;;9.20;98.50;;;;;;4934547;29;20059;-73
2022/03/14 08:10:09;;;;;;;7.13;3.97;;;9.20;98.10;;;;;;4928729;29;20047;-77
2022/03/14 08:12:49;;;;;;;6.35;4.38;;;9.30;98.40;;;;;;4925528;29;20032;-73
2022/03/14 08:15:29;;;;;;;6.82;3.85;;;9.30;97.50;;;;;;4932652;29;20036;-72
2022/03/14 08:17:57;;;;;;;4.90;4.40;;;9.30;97.90;;;;;;4934193;29;20164;-75
2022/03/14 08:20:28;;;;;;;4.03;3.17;;;9.40;98.00;;;;;;4934161;29;20049;-75
2022/03/14 08:22:58;;;;;;;11.02;3.92;;;9.60;97.50;;;;;;4917090;29;20028;-77
2022/03/14 08:25:27;;;;;;;4.13;3.42;;;9.60;96.90;;;;;;4931659;29;20043;-76
2022/03/14 08:27:54;;;;;;;7.75;3.28;;;9.60;97.20;;;;;;4931268;29;20030;-75
2022/03/14 08:30:21;;;;;;;6.38;3.58;;;9.60;94.90;;;;;;4933404;29;20069;-75
2022/03/14 08:32:48;;;;;;;2.85;2.47;;;9.70;95.40;;;;;;4933375;29;20051;-75
2022/03/14 08:35:20;;;;;;;4.35;2.72;;;9.70;93.90;;;;;;4932694;29;20489;-75
2022/03/14 08:37:49;;;;;;;8.07;3.05;;;9.80;93.90;;;;;;4933253;29;20031;-75
2022/03/14 08:40:17;;;;;;;6.20;2.50;;;9.60;93.60;;;;;;4926237;29;20040;-76
2022/03/14 08:42:45;;;;;;;4.63;2.35;;;9.50;93.80;;;;;;4927894;29;20054;-79
2022/03/14 08:45:12;;;;;;;6.05;2.75;;;9.40;94.10;;;;;;4931008;29;20047;-75
2022/03/14 08:47:39;;;;;;;4.97;2.95;;;9.50;94.30;;;;;;4932610;29;20033;-76
2022/03/14 08:50:08;;;;;;;7.50;3.08;;;9.50;93.90;;;;;;4935667;29;20039;-75
2022/03/14 08:52:37;;;;;;;4.28;2.65;;;9.70;93.80;;;;;;4919674;29;20059;-75
2022/03/14 08:55:04;;;;;;;6.97;2.30;;;10.30;94.10;;;;;;4935613;29;20504;-75
2022/03/14 08:57:31;;;;;;;1.80;1.40;;;11.10;91.70;;;;;;4937628;29;20039;-75
2022/03/14 08:59:59;;;;;;;4.75;2.13;;;11.30;89.60;;;;;;4936577;29;20040;-76
2022/03/14 09:02:25;;;;;;;11.90;3.28;;;11.90;86.60;;;;;;4937949;29;20034;-76
2022/03/14 09:04:51;;;;;;;6.20;2.55;;;12.00;85.20;;;;;;4933816;29;20393;-76
2022/03/14 09:07:25;;;;;;;6.85;4.75;;;11.60;83.90;;;;;;4937219;29;20058;-76
2022/03/14 09:09:51;;;;;;;3.15;1.58;;;11.10;84.70;;;;;;4933169;29;20039;-75
2022/03/14 09:12:19;;;;;;;5.57;2.72;;;10.70;83.30;;;;;;4936343;29;20043;-76
2022/03/14 09:14:46;;;;;;;4.93;2.53;;;10.70;84.70;;;;;;4918649;29;20093;-75
2022/03/14 09:17:13;;;;;;;5.88;3.92;;;11.10;84.50;;;;;;4937128;29;20024;-74
2022/03/14 09:19:40;;;;;;;6.78;2.53;;;11.60;81.20;;;;;;4936421;29;20048;-76
2022/03/14 09:22:11;;;;;;;12.35;7.07;;;12.40;78.70;;;;;;4933241;29;20035;-77
2022/03/14 09:24:38;;;;;;;6.40;4.90;;;13.20;76.40;;;;;;4915808;29;20040;-76
2022/03/14 09:27:05;;;;;;;3.35;2.10;;;14.00;73.40;;;;;;4929799;29;20053;-76
2022/03/14 09:29:31;;;;;;;2.47;1.38;;;13.40;70.70;;;;;;4935379;29;20039;-76
2022/03/14 09:31:58;;;;;;;12.05;4.55;;;13.10;70.90;;;;;;4933373;29;20051;-78
2022/03/14 09:34:24;;;;;;;7.55;3.08;;;13.50;72.20;;;;;;4930879;29;20048;-75
2022/03/14 09:36:51;;;;;;;7.80;1.85;;;12.60;73.30;;;;;;4937089;29;20461;-76
2022/03/14 09:39:17;;;;;;;3.40;1.35;;;12.20;71.60;;;;;;4936166;29;20248;-75
2022/03/14 09:41:43;;;;;;;2.20;1.70;;;11.80;73.80;;;;;;4936161;29;20461;-76
2022/03/14 09:44:10;;;;;;;2.33;1.15;;;12.40;72.90;;;;;;4928224;29;20139;-76
2022/03/14 09:46:39;;;;;;;4.43;2.25;;;12.80;71.20;;;;;;4899362;29;20040;-77
2022/03/14 09:49:09;;;;;;;7.85;3.70;;;12.80;69.90;;;;;;4915435;29;20051;-78
2022/03/14 09:51:39;;;;;;;6.45;1.85;;;12.40;70.10;;;;;;4914864;29;20048;-78
2022/03/14 09:54:09;;;;;;;4.50;1.92;;;11.70;73.30;;;;;;4929289;29;20043;-76
2022/03/14 09:56:41;;;;;;;8.05;2.33;;;11.80;73.30;;;;;;4916308;29;20406;-77
2022/03/14 09:59:14;;;;;;;5.43;2.75;;;11.80;72.80;;;;;;4932372;29;20035;-76
2022/03/14 10:01:41;;;;;;;4.90;1.70;;;11.70;73.70;;;;;;4931302;29;20028;-76
2022/03/14 10:04:08;;;;;;;2.30;1.40;;;11.70;74.00;;;;;;4916380;29;20047;-76
2022/03/14 10:06:36;;;;;;;2.95;1.58;;;11.50;73.80;;;;;;4932760;29;20362;-76
2022/03/14 10:09:03;;;;;;;4.97;1.55;;;11.50;73.00;;;;;;4935107;29;20028;-76
2022/03/14 10:11:29;;;;;;;4.05;2.40;;;11.60;73.70;;;;;;4933381;29;20030;-75
2022/03/14 10:13:56;;;;;;;8.93;3.03;;;11.60;74.10;;;;;;4933071;29;20101;-75
2022/03/14 10:16:22;;;;;;;2.15;1.52;;;11.60;73.70;;;;;;4932332;29;20027;-75
2022/03/14 10:18:53;;;;;;;4.18;2.28;;;11.50;73.20;;;;;;4934975;29;20035;-75
2022/03/14 10:21:31;;;;;;;3.35;2.03;;;11.60;73.30;;;;;;4933265;29;20366;-76
2022/03/14 10:24:04;;;;;;;2.63;1.17;;;11.90;72.50;;;;;;4915068;29;20478;-76
2022/03/14 10:26:33;;;;;;;3.83;1.80;;;11.90;72.40;;;;;;4931515;29;20043;-75
2022/03/14 10:29:01;;;;;;;5.53;1.35;;;12.30;70.90;;;;;;4934961;29;20043;-81
2022/03/14 10:31:33;;;;;;;6.47;1.80;;;12.70;70.10;;;;;;4930478;29;20035;-76
2022/03/14 10:34:05;;;;;;;4.28;2.25;;;12.10;69.80;;;;;;4931437;29;20032;-80
2022/03/14 10:36:51;;;;;;;3.65;1.92;;;12.00;71.80;;;;;;4918887;29;20043;-76
2022/03/14 10:39:21;;;;;;;3.38;1.50;;;11.90;71.50;;;;;;4929972;29;20027;-76
2022/03/14 10:42:08;;;;;;;11.60;4.50;;;12.00;71.60;;;;;;4934757;29;20043;-78
2022/03/14 10:44:36;;;;;;;3.03;1.27;;;12.00;70.90;;;;;;4928828;29;20516;-78
2022/03/14 10:47:05;;;;;;;3.17;1.42;;;11.80;70.70;;;;;;4926968;29;20047;-76
2022/03/14 10:49:33;;;;;;;2.95;1.73;;;11.60;70.90;;;;;;4932972;29;20038;-76
2022/03/14 10:52:02;;;;;;;2.20;1.25;;;11.50;71.30;;;;;;4927939;29;20035;-79
2022/03/14 10:54:29;;;;;;;2.33;1.58;;;11.70;72.00;;;;;;4931144;29;20038;-75
2022/03/14 10:57:04;;;;;;;3.33;1.40;;;12.00;71.10;;;;;;4929925;29;20039;-76
2022/03/14 10:59:38;;;;;;;3.55;1.55;;;12.30;69.60;;;;;;4926354;29;20047;-77
2022/03/14 11:02:07;;;;;;;2.78;1.35;;;12.40;69.00;;;;;;4928134;29;20038;-76
2022/03/14 11:05:05;;;;;;;2.40;1.40;;;12.50;68.30;;;;;;4931536;29;20062;-77
2022/03/14 11:07:32;;;;;;;1.60;1.15;;;12.30;68.50;;;;;;4901924;29;20044;-75
2022/03/14 11:10:04;;;;;;;2.67;1.52;;;12.00;69.20;;;;;;4931978;29;20488;-80
2022/03/14 11:12:31;;;;;;;0.77;0.50;;;12.00;68.90;;;;;;4930930;29;20044;-78
2022/03/14 11:15:01;;;;;;;2.25;1.00;;;12.00;67.80;;;;;;4928840;29;20043;-76
2022/03/14 11:17:29;;;;;;;2.17;0.90;;;12.00;69.00;;;;;;4926761;29;20042;-76
2022/03/14 11:19:58;;;;;;;1.52;0.73;;;11.90;68.10;;;;;;4927482;29;20043;-76
2022/03/14 11:22:26;;;;;;;7.30;1.35;;;11.90;68.20;;;;;;4933844;29;20465;-76
2022/03/14 11:24:55;;;;;;;2.58;1.35;;;12.00;68.50;;;;;;4933389;29;20043;-78
2022/03/14 11:27:26;;;;;;;3.60;0.73;;;12.00;69.00;;;;;;4932352;29;20039;-76
2022/03/14 11:29:54;;;;;;;1.60;1.00;;;12.10;68.00;;;;;;4927259;29;20035;-76
2022/03/14 11:32:21;;;;;;;4.32;0.93;;;12.00;67.60;;;;;;4932920;29;20031;-75
2022/03/14 11:34:49;;;;;;;2.60;0.65;;;12.00;67.20;;;;;;4910659;29;20055;-75
2022/03/14 11:37:18;;;;;;;2.67;1.02;;;11.80;68.10;;;;;;4933377;29;20043;-75
2022/03/14 11:39:45;;;;;;;4.32;0.98;;;11.60;68.40;;;;;;4933359;29;20052;-75
2022/03/14 11:42:15;;;;;;;1.80;0.70;;;11.70;69.40;;;;;;4934326;29;20140;-75
2022/03/14 11:44:45;;;;;;;1.00;0.65;;;11.80;67.80;;;;;;4931932;29;20054;-75
2022/03/14 11:47:14;;;;;;;1.50;0.70;;;11.70;68.50;;;;;;4932875;29;20047;-76
2022/03/14 11:49:41;;;;;;;1.75;0.65;;;11.90;68.20;;;;;;4932468;29;20038;-75
2022/03/14 11:52:18;;;;;;;2.72;0.85;;;12.00;68.30;;;;;;4916746;29;20039;-76
2022/03/14 11:54:52;;;;;;;4.75;0.47;;;12.00;65.80;;;;;;4933658;29;20381;-76
2022/03/14 11:57:38;;;;;;;1.33;0.52;;;11.80;66.00;;;;;;4933671;29;20040;-79
2022/03/14 12:00:32;;;;;;;2.65;0.85;;;11.80;66.10;;;;;;4931411;29;20062;-76
2022/03/14 12:03:06;;;;;;;0.73;0.63;;;12.00;66.60;;;;;;4927308;29;20036;-76
2022/03/14 12:05:32;;;;;;;3.08;0.82;;;12.30;65.60;;;;;;4930104;29;20067;-76
2022/03/14 12:08:32;;;;;;;0.50;0.45;;;12.20;65.50;;;;;;4934040;29;20059;-77
2022/03/14 12:11:37;;;;;;;0.88;0.47;;;12.00;64.90;;;;;;4931002;29;20040;-75
2022/03/14 12:14:08;;;;;;;2.42;1.02;;;12.00;66.70;;;;;;4925892;29;20401;-76
2022/03/14 12:16:44;;;;;;;2.00;0.80;;;12.30;65.40;;;;;;4934225;29;20056;-75
2022/03/14 12:19:38;;;;;;;1.30;0.60;;;12.70;66.50;;;;;;4910880;29;20035;-75
2022/03/14 12:22:06;;;;;;;1.90;0.82;;;12.90;64.40;;;;;;4916613;29;20485;-75
2022/03/14 12:24:35;;;;;;;1.00;0.60;;;13.00;64.00;;;;;;4933501;29;20065;-74
2022/03/14 12:27:02;;;;;;;1.50;0.98;;;13.30;63.90;;;;;;4937824;29;20039;-75
2022/03/14 12:29:35;;;;;;;2.72;1.42;;;13.20;63.30;;;;;;4938054;29;20050;-74
2022/03/14 12:32:28;;;;;;;2.40;1.00;;;13.10;63.50;;;;;;4937905;29;20038;-74
2022/03/14 12:35:08;;;;;;;11.98;6.45;;;12.90;64.50;;;;;;4937448;29;20039;-75
2022/03/14 12:37:43;;;;;;;1.75;1.20;;;13.00;64.20;;;;;;4920622;29;20397;-75
2022/03/14 12:40:29;;;;;;;3.75;1.05;;;13.00;63.00;;;;;;4938019;29;20386;-75
2022/03/14 12:43:07;;;;;;;3.28;1.35;;;12.90;62.60;;;;;;4919202;29;20090;-74
2022/03/14 12:45:54;;;;;;;2.47;1.40;;;12.80;63.20;;;;;;4937741;29;20036;-75
2022/03/14 12:48:26;;;;;;;2.55;1.13;;;12.50;63.80;;;;;;4937310;29;20035;-73
2022/03/14 12:50:57;;;;;;;5.25;1.83;;;12.20;64.30;;;;;;4937655;29;20043;-74
2022/03/14 12:53:27;;;;;;;1.23;0.93;;;12.20;66.30;;;;;;4935689;29;20043;-74
2022/03/14 12:55:58;;;;;;;1.80;0.80;;;12.50;65.70;;;;;;4934455;29;20063;-74
2022/03/14 12:58:27;;;;;;;1.67;0.95;;;12.60;63.40;;;;;;4935126;29;20370;-74